Time;durP1;ratioP1;P1;durP2;ratioP2;P2;SDS_P1;SDS_P2;PMS_P1;PMS_P2;Temp;Humidity;BMP_temperature;BMP_pressure;BME280_temperature;BME280_humidity;BME280_pressure;Samples;Min_cycle;Max_cycle;Signal;HPM_P1;HPM_P2
2022/05/20 00:02:36;;;;;;;2.47;2.28;;;;;;;28.13;57.14;100860.91;5034947;28;20052;-64
2022/05/20 00:05:20;;;;;;;2.17;1.98;;;;;;;28.13;57.20;100857.38;5035159;28;20048;-63
2022/05/20 00:08:04;;;;;;;2.35;2.15;;;;;;;28.12;57.06;100853.78;5035158;28;20072;-64
2022/05/20 00:10:53;;;;;;;2.00;1.90;;;;;;;28.13;56.98;100855.44;5035073;28;20060;-64
2022/05/20 00:13:37;;;;;;;2.17;1.98;;;;;;;28.12;57.47;100852.97;5033781;28;20063;-64
2022/05/20 00:16:22;;;;;;;1.92;1.83;;;;;;;28.11;57.13;100846.63;5034962;28;20095;-64
2022/05/20 00:19:07;;;;;;;2.30;2.10;;;;;;;28.10;57.35;100839.50;5034577;28;20056;-64
2022/05/20 00:21:51;;;;;;;2.25;2.05;;;;;;;28.11;57.42;100840.34;5033872;28;20048;-64
2022/05/20 00:25:45;;;;;;;2.60;2.40;;;;;;;28.11;57.32;100845.81;5033818;28;20091;-64
2022/05/20 00:27:39;;;;;;;2.85;2.05;;;;;;;28.09;56.98;100842.47;5034605;28;20129;-63
2022/05/20 00:30:24;;;;;;;2.33;2.15;;;;;;;28.10;57.41;100841.38;5034313;28;20055;-63
2022/05/20 00:33:08;;;;;;;1.90;1.80;;;;;;;28.09;57.19;100832.34;5034654;28;20052;-63
2022/05/20 00:35:52;;;;;;;2.10;1.98;;;;;;;28.09;57.35;100826.88;5034442;28;20488;-63
2022/05/20 00:38:36;;;;;;;;;;;;;;;28.03;57.47;100827.81;5033903;28;20410;-63
2022/05/20 00:41:20;;;;;;;2.20;2.00;;;;;;;28.04;57.34;100818.53;5034230;28;20012;-63
2022/05/20 00:44:04;;;;;;;2.10;1.90;;;;;;;28.05;57.30;100824.84;5034090;28;20095;-63
2022/05/20 00:46:47;;;;;;;;;;;;;;;28.01;57.34;100818.22;5033816;28;20175;-63
2022/05/20 00:49:32;;;;;;;1.90;1.80;;;;;;;28.05;57.72;100827.59;5034010;28;19924;-63
2022/05/20 00:52:19;;;;;;;2.50;2.10;;;;;;;28.06;57.28;100821.88;5033955;28;20128;-64
2022/05/20 00:55:09;;;;;;;2.15;1.98;;;;;;;28.04;57.42;100824.00;5033900;28;20095;-63
2022/05/20 00:58:04;;;;;;;2.25;2.13;;;;;;;28.04;57.59;100826.75;5034170;28;20133;-63
2022/05/20 01:00:53;;;;;;;2.10;1.95;;;;;;;28.04;57.33;100824.00;5033147;28;20576;-63
2022/05/20 01:03:38;;;;;;;2.20;2.00;;;;;;;28.02;57.40;100820.69;5018997;28;20051;-63
2022/05/20 01:06:22;;;;;;;2.10;1.90;;;;;;;28.01;57.71;100819.03;5033998;28;20053;-63
2022/05/20 01:09:05;;;;;;;;;;;;;;;27.97;57.47;100820.59;5034318;28;20094;-63
2022/05/20 01:11:50;;;;;;;2.15;2.00;;;;;;;27.99;57.59;100821.19;5033951;28;19936;-63
2022/05/20 01:14:34;;;;;;;1.98;1.80;;;;;;;27.99;57.57;100815.69;5033842;28;20129;-63
2022/05/20 01:17:18;;;;;;;3.20;1.90;;;;;;;27.99;57.88;100815.69;5033594;28;20056;-63
2022/05/20 01:20:02;;;;;;;2.38;2.00;;;;;;;27.99;57.82;100821.19;5033846;28;20060;-63
2022/05/20 01:22:53;;;;;;;2.00;1.90;;;;;;;27.99;57.66;100812.97;5032790;28;20049;-63
2022/05/20 01:25:41;;;;;;;2.22;2.03;;;;;;;27.98;57.92;100802.22;5033751;28;20049;-63
2022/05/20 01:28:28;;;;;;;2.20;2.00;;;;;;;27.97;57.84;100817.84;5033339;28;20115;-63
2022/05/20 01:31:14;;;;;;;2.17;1.98;;;;;;;27.97;57.73;100817.84;5032653;28;20472;-63
2022/05/20 01:33:57;;;;;;;2.00;1.90;;;;;;;27.97;57.92;100811.53;5033520;28;20044;-63
2022/05/20 01:36:41;;;;;;;1.95;1.85;;;;;;;27.97;57.82;100815.13;5033308;28;20227;-63
2022/05/20 01:39:25;;;;;;;;;;;;;;;27.91;57.95;100810.59;5033759;28;20099;-63
2022/05/20 01:42:25;;;;;;;1.77;1.67;;;;;;;27.93;58.17;100802.97;5033130;28;19920;-63
2022/05/20 01:45:13;;;;;;;2.00;1.90;;;;;;;27.94;57.66;100812.84;5032800;28;20063;-63
2022/05/20 01:48:24;;;;;;;1.90;1.77;;;;;;;27.93;58.12;100811.19;5032474;28;20052;-63
2022/05/20 01:51:12;;;;;;;2.30;2.10;;;;;;;27.92;57.93;100803.22;5032303;28;20048;-63
2022/05/20 01:54:09;;;;;;;1.88;1.77;;;;;;;27.93;58.18;100804.88;5032290;28;20409;-63
2022/05/20 01:56:59;;;;;;;2.03;1.92;;;;;;;27.92;58.07;100806.78;5032625;28;20056;-63
2022/05/20 01:59:47;;;;;;;1.70;1.60;;;;;;;27.92;58.16;100806.78;5031967;28;20118;-63
2022/05/20 02:02:38;;;;;;;3.15;2.10;;;;;;;27.92;58.40;100808.69;5032385;28;20103;-63
2022/05/20 02:05:28;;;;;;;2.60;1.88;;;;;;;27.88;57.99;100797.38;5032308;28;20075;-63
2022/05/20 02:08:30;;;;;;;1.77;1.67;;;;;;;27.89;58.45;100793.56;5032448;28;20244;-63
2022/05/20 02:11:21;;;;;;;2.17;1.67;;;;;;;27.88;58.34;100794.66;5032283;28;20045;-63
2022/05/20 02:14:19;;;;;;;1.98;1.77;;;;;;;27.88;58.44;100797.38;5031834;28;20171;-63
2022/05/20 02:17:11;;;;;;;2.20;2.00;;;;;;;27.87;58.19;100806.69;5031926;28;20051;-63
2022/05/20 02:19:59;;;;;;;3.35;2.03;;;;;;;27.86;58.09;100805.03;5031779;28;20111;-63
2022/05/20 02:22:47;;;;;;;2.30;2.10;;;;;;;27.86;58.17;100804.19;5032174;28;20079;-63
2022/05/20 02:25:33;;;;;;;2.53;2.00;;;;;;;27.86;58.42;100805.03;5032115;28;20051;-63
2022/05/20 02:28:25;;;;;;;1.60;1.50;;;;;;;27.85;58.25;100806.09;5032037;28;20052;-63
2022/05/20 02:31:14;;;;;;;2.30;1.92;;;;;;;27.85;58.49;100817.06;5018143;28;20052;-63
2022/05/20 02:34:00;;;;;;;2.10;1.85;;;;;;;27.83;58.35;100805.50;5031916;28;20052;-63
2022/05/20 02:36:44;;;;;;;2.47;1.88;;;;;;;27.84;58.37;100800.84;5033058;28;20480;-63
2022/05/20 02:39:28;;;;;;;1.80;1.70;;;;;;;27.81;58.70;100807.66;5031978;28;20084;-63
2022/05/20 02:42:12;;;;;;;2.30;2.10;;;;;;;27.81;58.68;100810.41;5033123;28;20133;-63
2022/05/20 02:44:59;;;;;;;1.80;1.67;;;;;;;27.82;58.72;100808.50;5032673;28;20049;-63
2022/05/20 02:47:43;;;;;;;2.03;1.92;;;;;;;27.81;58.45;100804.91;5032633;28;20048;-63
2022/05/20 02:50:27;;;;;;;1.80;1.70;;;;;;;27.81;58.43;100795.88;5031457;28;20414;-63
2022/05/20 02:53:12;;;;;;;2.10;1.90;;;;;;;27.80;58.48;100808.72;5033357;28;20100;-63
2022/05/20 02:55:56;;;;;;;1.80;1.70;;;;;;;27.79;58.34;100807.06;5035400;28;20405;-63
2022/05/20 03:04:46;;;;;;;2.08;1.88;;;;;;;27.76;58.51;100807.56;5036332;28;20044;-63
2022/05/20 03:07:30;;;;;;;2.10;1.90;;;;;;;27.76;58.61;100818.53;5036240;28;20052;-63
2022/05/20 03:10:14;;;;;;;2.63;1.80;;;;;;;27.75;58.50;100811.38;5035893;28;20052;-63
2022/05/20 03:13:03;;;;;;;2.20;1.98;;;;;;;27.75;58.65;100819.59;5035902;28;20094;-63
2022/05/20 03:15:47;;;;;;;1.73;1.60;;;;;;;27.75;58.72;100819.59;5034970;28;20095;-63
2022/05/20 03:18:30;;;;;;;1.65;1.55;;;;;;;27.73;58.45;100816.25;5034796;28;20055;-63
2022/05/20 03:21:14;;;;;;;2.15;1.90;;;;;;;27.73;58.85;100813.50;5035987;28;20051;-63
2022/05/20 03:24:02;;;;;;;;;;;;;;;27.68;58.92;100818.88;5035400;28;20048;-63
2022/05/20 03:26:46;;;;;;;1.40;1.30;;;;;;;27.71;58.57;100817.56;5034901;28;20388;-63
2022/05/20 03:29:32;;;;;;;1.80;1.60;;;;;;;27.71;58.47;100812.88;5034806;28;20087;-63
2022/05/20 03:32:16;;;;;;;1.63;1.52;;;;;;;27.70;58.71;100827.66;5034559;28;20052;-63
2022/05/20 03:35:00;;;;;;;1.90;1.80;;;;;;;27.70;58.71;100824.94;5035410;28;20405;-63
2022/05/20 03:37:44;;;;;;;1.67;1.58;;;;;;;27.70;58.53;100819.44;5034737;28;20060;-63
2022/05/20 03:40:28;;;;;;;;;;;;;;;27.64;58.92;100816.84;5035765;28;20080;-63
2022/05/20 03:43:12;;;;;;;1.67;1.58;;;;;;;27.67;58.61;100817.19;5035371;28;19924;-63
2022/05/20 03:45:56;;;;;;;2.60;1.90;;;;;;;27.68;58.59;100816.13;5035583;28;20117;-63
2022/05/20 03:48:40;;;;;;;1.77;1.67;;;;;;;27.68;58.90;100821.59;5034531;28;20095;-64
2022/05/20 03:51:24;;;;;;;;;;;;;;;27.62;58.63;100814.34;5035934;28;20559;-63
2022/05/20 03:54:08;;;;;;;1.80;1.70;;;;;;;27.65;58.99;100813.88;5034372;28;20385;-63
2022/05/20 03:56:52;;;;;;;1.70;1.60;;;;;;;27.65;58.84;100802.91;5034054;28;20056;-63
2022/05/20 03:59:37;;;;;;;1.98;1.88;;;;;;;27.65;58.50;100805.66;5034144;28;20056;-64
2022/05/20 04:02:21;;;;;;;2.03;1.83;;;;;;;27.64;58.84;100806.69;5035248;28;20048;-63
2022/05/20 04:05:05;;;;;;;2.22;1.98;;;;;;;27.65;58.85;100802.06;5034577;28;20052;-63
2022/05/20 04:07:48;;;;;;;;;;;;;;;27.59;58.92;100790.19;5035288;28;20049;-63
2022/05/20 04:10:32;;;;;;;1.52;1.42;;;;;;;27.61;58.74;100785.28;5035032;28;20019;-63
2022/05/20 04:13:16;;;;;;;1.85;1.73;;;;;;;27.62;58.60;100786.94;5035006;28;20103;-63
2022/05/20 04:16:01;;;;;;;1.50;1.40;;;;;;;27.62;58.84;100797.91;5034939;28;20048;-64
2022/05/20 04:18:45;;;;;;;1.63;1.52;;;;;;;27.63;58.56;100787.78;5034815;28;20068;-62
2022/05/20 04:21:29;;;;;;;2.08;1.92;;;;;;;27.62;58.77;100786.94;5035211;28;20056;-64
2022/05/20 04:24:13;;;;;;;;;;;;;;;27.57;58.89;100784.13;5035223;28;20417;-63
2022/05/20 04:26:57;;;;;;;2.03;1.88;;;;;;;27.60;58.89;100789.09;5034628;28;20349;-63
2022/05/20 04:29:41;;;;;;;2.17;1.80;;;;;;;27.61;58.49;100781.72;5034380;28;20057;-63
2022/05/20 04:32:25;;;;;;;1.77;1.67;;;;;;;27.62;58.48;100792.41;5033652;28;20504;-63
2022/05/20 04:35:09;;;;;;;1.63;1.52;;;;;;;27.61;58.76;100790.75;5034510;28;20076;-63
2022/05/20 04:37:55;;;;;;;1.90;1.70;;;;;;;27.62;58.52;100794.34;5034243;28;20084;-63
2022/05/20 04:40:39;;;;;;;1.80;1.70;;;;;;;27.61;58.53;100790.75;5033230;28;20414;-63
2022/05/20 04:49:31;;;;;;;1.80;1.70;;;;;;;27.61;58.63;100785.28;5034008;28;20048;-63
2022/05/20 04:52:15;;;;;;;2.10;1.90;;;;;;;27.60;58.86;100789.09;5034307;28;20125;-63
2022/05/20 04:54:59;;;;;;;2.00;1.90;;;;;;;27.61;58.68;100790.75;5033145;28;20113;-63
2022/05/20 04:57:49;;;;;;;1.70;1.60;;;;;;;27.60;58.57;100797.31;5033254;28;20588;-63
2022/05/20 05:00:33;;;;;;;1.80;1.50;;;;;;;27.61;58.61;100801.72;5033800;28;20103;-63
2022/05/20 05:03:18;;;;;;;2.00;1.83;;;;;;;27.61;58.79;100807.19;5034315;28;20119;-63
2022/05/20 05:06:03;;;;;;;2.00;1.83;;;;;;;27.61;58.51;100809.13;5033013;28;20063;-63
2022/05/20 05:08:46;;;;;;;;;;;;;;;27.55;58.68;100808.19;5019398;28;20516;-63
2022/05/20 05:11:31;;;;;;;1.83;1.73;;;;;;;27.60;58.36;100810.19;5033994;28;20006;-63
2022/05/20 05:14:16;;;;;;;2.40;1.75;;;;;;;27.61;58.45;100823.63;5032862;28;20114;-63
2022/05/20 05:17:00;;;;;;;2.00;1.80;;;;;;;27.60;58.41;100816.50;5032491;28;20079;-63
2022/05/20 05:19:44;;;;;;;;;;;;;;;27.57;58.74;100827.09;5033217;28;20051;-63
2022/05/20 05:22:28;;;;;;;;;;;;;;;27.55;58.71;100830.09;5033955;28;20292;-63
2022/05/20 05:25:13;;;;;;;2.17;1.98;;;;;;;27.59;58.41;100834.00;5033528;28;19966;-63
2022/05/20 05:27:57;;;;;;;3.45;2.10;;;;;;;27.60;58.32;100832.94;5033715;28;20059;-63
2022/05/20 05:30:45;;;;;;;2.53;2.00;;;;;;;27.61;58.38;100840.06;5033557;28;20060;-63
2022/05/20 05:33:28;;;;;;;2.33;2.00;;;;;;;27.61;58.60;100839.25;5032442;28;20049;-63
2022/05/20 05:36:12;;;;;;;2.00;1.88;;;;;;;27.62;58.14;100846.41;5033312;28;20155;-63
2022/05/20 05:38:57;;;;;;;2.20;2.00;;;;;;;27.63;58.31;100842.56;5032147;28;20053;-63
2022/05/20 05:41:41;;;;;;;1.80;1.70;;;;;;;27.64;58.23;100839.56;5032329;28;20612;-63
2022/05/20 05:44:26;;;;;;;1.73;1.63;;;;;;;27.64;58.56;100845.06;5033205;28;20040;-63
2022/05/20 05:47:10;;;;;;;2.20;1.90;;;;;;;27.64;58.43;100838.75;5033167;28;20456;-63
2022/05/20 05:49:54;;;;;;;2.20;2.00;;;;;;;27.65;58.14;100833.06;5033319;28;20045;-63
2022/05/20 05:52:38;;;;;;;2.42;1.80;;;;;;;27.66;58.44;100829.22;5033420;28;20071;-63
2022/05/20 05:55:22;;;;;;;;;;;;;;;27.62;58.32;100832.69;5033471;28;20048;-63
2022/05/20 05:58:06;;;;;;;2.33;1.92;;;;;;;27.65;58.09;100835.78;5033101;28;19920;-63
2022/05/20 06:00:49;;;;;;;;;;;;;;;27.62;58.44;100839.00;5032963;28;20406;-63
2022/05/20 06:03:34;;;;;;;2.00;1.85;;;;;;;27.65;58.47;100838.53;5033633;28;20277;-63
2022/05/20 06:06:17;;;;;;;2.05;1.92;;;;;;;27.67;58.09;100839.13;5033073;28;20045;-63
2022/05/20 06:09:02;;;;;;;2.28;2.08;;;;;;;27.67;58.02;100839.13;5032917;28;20060;-63
2022/05/20 06:11:47;;;;;;;2.22;2.03;;;;;;;27.68;58.21;100846.25;5032995;28;20094;-64
2022/05/20 06:14:31;;;;;;;2.03;1.80;;;;;;;27.70;58.42;100837.78;5032094;28;20129;-63
2022/05/20 06:17:16;;;;;;;2.53;2.10;;;;;;;27.69;58.01;100839.69;5032199;28;20052;-63
2022/05/20 06:20:01;;;;;;;2.05;1.85;;;;;;;27.69;58.04;100839.69;5032915;28;20128;-64
2022/05/20 06:22:45;;;;;;;2.10;1.92;;;;;;;27.71;58.32;100836.72;5032051;28;20120;-63
2022/05/20 06:25:30;;;;;;;2.33;2.00;;;;;;;27.70;58.30;100833.16;5033135;28;20053;-63
2022/05/20 06:28:16;;;;;;;2.03;1.85;;;;;;;27.72;58.28;100827.44;5034014;28;20426;-64
2022/05/20 06:31:00;;;;;;;1.88;1.77;;;;;;;27.72;58.19;100825.50;5036721;28;20056;-63
2022/05/20 06:33:44;;;;;;;2.00;1.90;;;;;;;27.72;57.94;100822.78;5036861;28;20405;-63
2022/05/20 06:42:33;;;;;;;2.40;2.20;;;;;;;27.74;58.18;100831.59;5036802;28;20048;-64
2022/05/20 06:45:17;;;;;;;2.05;1.92;;;;;;;27.73;58.13;100821.72;5035425;28;20048;-63
2022/05/20 06:48:01;;;;;;;;;;;;;;;27.70;57.94;100824.94;5037098;28;20048;-63
2022/05/20 06:50:45;;;;;;;2.13;1.92;;;;;;;27.73;58.25;100827.19;5021372;28;20288;-63
2022/05/20 06:53:29;;;;;;;;;;;;;;;27.71;58.20;100825.78;5037059;28;20079;-63
2022/05/20 06:56:14;;;;;;;2.10;1.90;;;;;;;27.73;58.16;100821.72;5036469;28;19927;-63
2022/05/20 06:58:59;;;;;;;2.20;1.98;;;;;;;27.77;58.05;100824.81;5036407;28;20048;-64
2022/05/20 07:01:43;;;;;;;1.95;1.85;;;;;;;27.75;57.90;100825.06;5035435;28;20048;-63
2022/05/20 07:04:29;;;;;;;;;;;;;;;27.73;58.09;100829.09;5036568;28;20499;-63
2022/05/20 07:07:13;;;;;;;2.05;1.95;;;;;;;27.75;58.01;100824.22;5036253;28;19963;-63
2022/05/20 07:09:57;;;;;;;2.53;2.10;;;;;;;27.77;58.07;100830.28;5035935;28;20056;-63
2022/05/20 07:12:40;;;;;;;;;;;;;;;27.71;57.77;100826.59;5036655;28;20044;-63
2022/05/20 07:15:25;;;;;;;2.13;1.92;;;;;;;27.74;58.06;100817.91;5036096;28;19923;-63
2022/05/20 07:18:09;;;;;;;1.90;1.80;;;;;;;27.77;58.14;100817.44;5036132;28;20080;-64
2022/05/20 07:20:53;;;;;;;1.92;1.83;;;;;;;27.77;57.78;100805.63;5036062;28;20056;-63
2022/05/20 07:23:37;;;;;;;2.22;1.98;;;;;;;27.78;58.17;100812.78;5035998;28;20051;-63
2022/05/20 07:26:21;;;;;;;2.40;2.20;;;;;;;27.78;57.76;100805.41;5035819;28;20041;-63
2022/05/20 07:29:05;;;;;;;;;;;;;;;27.74;58.04;100806.94;5035609;28;20044;-64
2022/05/20 07:31:49;;;;;;;2.40;2.20;;;;;;;27.78;57.93;100801.81;5034924;28;19936;-64
2022/05/20 07:34:33;;;;;;;;;;;;;;;27.74;58.09;100800.66;5036118;28;20119;-63
2022/05/20 07:37:17;;;;;;;2.00;1.90;;;;;;;27.79;57.83;100804.31;5034800;28;20008;-63
2022/05/20 07:40:02;;;;;;;;;;;;;;;27.75;58.19;100800.41;5035360;28;20052;-64
2022/05/20 07:42:46;;;;;;;;;;;;;;;27.74;58.00;100790.50;5036138;28;19919;-64
2022/05/20 07:45:30;;;;;;;2.13;1.80;;;;;;;27.78;58.22;100786.22;5035558;28;20281;-63
2022/05/20 07:48:14;;;;;;;2.25;2.05;;;;;;;27.79;58.10;100779.66;5035101;28;20580;-63
2022/05/20 07:51:01;;;;;;;2.08;1.88;;;;;;;27.81;58.26;100785.72;5035502;28;20497;-64
2022/05/20 07:53:51;;;;;;;2.00;1.80;;;;;;;27.82;57.88;100786.56;5035416;28;20051;-63
2022/05/20 07:56:39;;;;;;;2.33;2.13;;;;;;;27.82;58.17;100781.91;5020138;28;20115;-63
2022/05/20 07:59:27;;;;;;;2.20;2.00;;;;;;;27.81;58.11;100780.25;5034197;28;20088;-63
2022/05/20 08:02:13;;;;;;;2.28;2.08;;;;;;;27.83;57.78;100780.84;5033990;28;20175;-64
2022/05/20 08:05:01;;;;;;;2.30;2.10;;;;;;;27.85;58.00;100786.06;5034197;28;20052;-63
2022/05/20 08:07:45;;;;;;;2.47;2.28;;;;;;;27.84;58.03;100785.22;5035091;28;20056;-63
2022/05/20 08:10:31;;;;;;;1.88;1.77;;;;;;;27.85;57.93;100778.72;5033767;28;20071;-63
2022/05/20 08:13:17;;;;;;;2.30;2.10;;;;;;;27.85;57.98;100770.47;5034749;28;20052;-63
2022/05/20 08:16:01;;;;;;;2.10;1.90;;;;;;;27.87;57.63;100765.59;5034894;28;20060;-63
2022/05/20 08:18:45;;;;;;;2.00;1.90;;;;;;;27.86;58.04;100758.44;5034630;28;20048;-63
2022/05/20 08:21:28;;;;;;;;;;;;;;;27.82;57.94;100776.44;5035311;28;20095;-63
2022/05/20 08:24:12;;;;;;;2.53;1.70;;;;;;;27.86;57.92;100765.81;5034823;28;20032;-63
2022/05/20 08:26:56;;;;;;;;;;;;;;;27.82;57.88;100765.47;5034864;28;20068;-64
2022/05/20 08:29:40;;;;;;;2.17;1.98;;;;;;;27.84;58.08;100757.84;5034476;28;19928;-64
2022/05/20 08:32:24;;;;;;;;;;;;;;;27.81;58.14;100758.34;5034876;28;20052;-63
2022/05/20 08:35:10;;;;;;;2.13;1.92;;;;;;;27.83;58.00;100745.22;5034258;28;20006;-64
2022/05/20 08:37:55;;;;;;;2.22;2.03;;;;;;;27.86;57.92;100750.22;5034534;28;20047;-64
2022/05/20 08:40:44;;;;;;;2.03;1.85;;;;;;;27.86;58.00;100750.22;5034609;28;20044;-63
2022/05/20 08:43:30;;;;;;;2.40;2.20;;;;;;;27.86;58.22;100750.22;5034268;28;20044;-62
2022/05/20 08:46:15;;;;;;;2.13;2.00;;;;;;;27.87;58.14;100742.81;5034599;28;20044;-64
2022/05/20 08:48:58;;;;;;;;;;;;;;;27.84;58.09;100746.06;5033458;28;20547;-63
2022/05/20 08:51:48;;;;;;;1.77;1.67;;;;;;;27.87;58.05;100735.44;5032224;28;19928;-63
2022/05/20 08:54:32;;;;;;;1.90;1.80;;;;;;;27.88;57.86;100739.84;5033203;28;20048;-64
2022/05/20 08:57:23;;;;;;;;;;;;;;;27.85;58.25;100742.25;5034872;28;20096;-63
2022/05/20 09:00:12;;;;;;;2.33;2.13;;;;;;;27.88;58.19;100737.09;5033744;28;19920;-63
2022/05/20 09:02:57;;;;;;;2.10;1.90;;;;;;;27.89;57.80;100724.22;5033087;28;20199;-63
2022/05/20 09:05:42;;;;;;;2.10;1.88;;;;;;;27.90;58.18;100732.19;5033813;28;20132;-63
2022/05/20 09:08:33;;;;;;;2.00;1.90;;;;;;;27.92;58.09;100721.00;5032675;28;20048;-63
2022/05/20 09:11:28;;;;;;;2.35;1.80;;;;;;;27.93;58.04;100719.94;5032816;28;20099;-64
2022/05/20 09:17:22;;;;;;;3.13;2.17;;;;;;;27.93;57.87;100717.19;5033059;28;20413;-64
2022/05/20 09:20:08;;;;;;;2.13;2.03;;;;;;;27.94;58.17;100708.69;5032744;28;20079;-63
2022/05/20 09:23:00;;;;;;;2.10;1.92;;;;;;;27.95;58.08;100710.34;5032797;28;20048;-63
2022/05/20 09:25:47;;;;;;;2.50;2.10;;;;;;;27.96;57.97;100701.09;5032836;28;20048;-64
2022/05/20 09:28:38;;;;;;;2.30;2.20;;;;;;;27.98;58.07;100682.47;5032401;28;20055;-63
2022/05/20 09:31:25;;;;;;;2.20;2.00;;;;;;;27.97;58.02;100674.50;5032926;28;20136;-63
2022/05/20 09:34:27;;;;;;;2.05;1.85;;;;;;;27.98;57.71;100666.03;5033600;28;20072;-63
2022/05/20 09:37:11;;;;;;;2.72;2.22;;;;;;;27.99;58.18;100673.19;5033721;28;20044;-63
2022/05/20 09:39:55;;;;;;;3.22;2.40;;;;;;;28.01;58.13;100675.69;5033310;28;20080;-63
2022/05/20 09:42:59;;;;;;;2.10;1.90;;;;;;;28.01;57.80;100676.50;5032450;28;20413;-63
2022/05/20 09:45:46;;;;;;;2.45;2.25;;;;;;;28.03;57.84;100679.00;5032530;28;20604;-63
2022/05/20 09:48:51;;;;;;;2.08;1.95;;;;;;;28.05;58.03;100668.63;5018086;28;20126;-63
2022/05/20 09:51:41;;;;;;;2.20;2.10;;;;;;;28.06;58.08;100668.38;5033334;28;20107;-63
2022/05/20 09:54:30;;;;;;;2.20;2.00;;;;;;;28.06;57.87;100668.38;5032540;28;20071;-63
2022/05/20 09:57:23;;;;;;;2.40;2.10;;;;;;;28.08;57.86;100668.94;5032345;28;20516;-63
2022/05/20 10:00:19;;;;;;;2.30;2.10;;;;;;;28.11;57.77;100660.22;5033322;28;20048;-63
2022/05/20 10:03:13;;;;;;;2.20;2.00;;;;;;;28.12;57.88;100664.63;5034237;28;20051;-63
2022/05/20 10:06:33;;;;;;;2.30;2.10;;;;;;;28.16;57.87;100673.19;5036506;28;20048;-63
2022/05/20 10:09:35;;;;;;;2.63;2.42;;;;;;;28.18;57.54;100663.63;5036304;28;20048;-63
2022/05/20 10:12:27;;;;;;;3.55;2.40;;;;;;;28.21;57.36;100660.38;5037032;28;20532;-62
2022/05/20 10:15:49;;;;;;;2.53;2.33;;;;;;;28.24;57.27;100640.69;5035861;28;20045;-62
2022/05/20 10:18:44;;;;;;;2.22;2.08;;;;;;;28.27;57.22;100653.06;5019914;28;20103;-63
2022/05/20 10:21:39;;;;;;;2.45;2.25;;;;;;;28.29;57.05;100650.91;5035940;28;20045;-64
2022/05/20 10:24:34;;;;;;;3.08;2.42;;;;;;;28.30;57.30;100631.47;5036857;28;20068;-63
2022/05/20 10:27:28;;;;;;;3.03;2.50;;;;;;;28.34;57.26;100624.44;5021987;28;20099;-62
2022/05/20 10:33:28;;;;;;;3.05;2.45;;;;;;;28.41;56.88;100625.09;5036149;28;20063;-63
2022/05/20 10:36:33;;;;;;;2.70;2.50;;;;;;;28.45;56.57;100617.19;5035874;28;20055;-63
2022/05/20 10:39:39;;;;;;;2.50;2.30;;;;;;;28.47;56.33;100602.16;5021807;28;20055;-63
2022/05/20 10:42:38;;;;;;;2.67;2.30;;;;;;;28.49;56.35;100593.66;5036791;28;20099;-63
2022/05/20 10:49:15;;;;;;;2.65;2.45;;;;;;;28.52;56.23;100574.78;5036187;28;20052;-63
2022/05/20 10:52:11;;;;;;;3.70;2.40;;;;;;;28.54;56.08;100563.56;5030551;28;20107;-63
2022/05/20 10:55:20;;;;;;;2.53;2.33;;;;;;;28.55;55.88;100533.13;5035877;28;20049;-62
2022/05/20 10:58:24;;;;;;;2.45;2.25;;;;;;;28.58;56.03;100513.44;5035455;28;20051;-63
2022/05/20 11:01:17;;;;;;;2.60;2.40;;;;;;;28.58;56.07;100502.47;5036172;28;20043;-62
2022/05/20 11:04:17;;;;;;;;;;;;;;;28.56;56.10;100490.88;5035809;28;20770;-63
2022/05/20 11:07:20;;;;;;;2.67;2.33;;;;;;;28.62;55.52;100475.31;5035999;28;19920;-63
2022/05/20 11:10:17;;;;;;;2.90;2.63;;;;;;;28.64;55.59;100473.19;5035879;28;20417;-63
2022/05/20 11:13:22;;;;;;;3.70;2.17;;;;;;;28.65;55.75;100453.69;5035199;28;20464;-63
2022/05/20 11:16:28;;;;;;;2.42;2.20;;;;;;;28.67;55.29;100437.84;5035726;28;20144;-62
2022/05/20 11:19:38;;;;;;;3.75;2.20;;;;;;;28.69;55.37;100434.81;5035007;28;20560;-63
2022/05/20 11:22:50;;;;;;;3.75;2.70;;;;;;;28.70;55.52;100437.31;5036177;28;20091;-63
2022/05/20 11:25:54;;;;;;;2.63;2.38;;;;;;;28.72;55.17;100437.88;5036082;28;20123;-63
2022/05/20 11:28:48;;;;;;;3.80;2.63;;;;;;;28.74;55.23;100427.47;5034565;28;20048;-63
2022/05/20 11:31:51;;;;;;;;;;;;;;;28.71;55.13;100424.41;5036306;28;20432;-63
2022/05/20 11:34:46;;;;;;;2.75;2.40;;;;;;;28.78;55.01;100427.78;5035463;28;19924;-63
2022/05/20 11:37:55;;;;;;;4.45;2.60;;;;;;;28.79;54.96;100419.31;5035739;28;20045;-64
2022/05/20 11:41:04;;;;;;;2.80;2.60;;;;;;;28.83;54.95;100419.63;5035481;28;20094;-63
2022/05/20 11:44:14;;;;;;;2.60;2.40;;;;;;;28.84;54.71;100424.00;5035903;28;20056;-63
2022/05/20 11:47:25;;;;;;;2.60;2.40;;;;;;;28.85;54.43;100415.50;5034538;28;20547;-63
2022/05/20 11:50:24;;;;;;;2.70;2.50;;;;;;;28.88;54.32;100404.03;5021424;28;20103;-61
2022/05/20 11:53:18;;;;;;;2.80;2.60;;;;;;;28.91;54.16;100405.41;5035442;28;20098;-61
2022/05/20 11:56:06;;;;;;;3.55;2.63;;;;;;;28.93;54.08;100387.63;5035373;28;20056;-61
2022/05/20 11:59:17;;;;;;;2.95;2.65;;;;;;;28.96;54.03;100389.84;5035240;28;20048;-61
2022/05/20 12:02:06;;;;;;;2.95;2.65;;;;;;;28.99;53.83;100383.84;5035306;28;20044;-61
2022/05/20 12:04:51;;;;;;;3.15;2.65;;;;;;;29.02;53.89;100372.34;5034208;28;20088;-61
2022/05/20 12:07:37;;;;;;;2.47;2.28;;;;;;;29.06;53.52;100370.72;5035466;28;20124;-61
2022/05/20 12:10:30;;;;;;;2.63;2.42;;;;;;;29.10;53.22;100371.88;5035080;28;20079;-61
2022/05/20 12:13:26;;;;;;;3.33;2.83;;;;;;;29.13;53.15;100357.59;5034898;28;20168;-61
2022/05/20 12:16:11;;;;;;;3.20;2.90;;;;;;;29.16;53.16;100348.84;5033702;28;20464;-61
2022/05/20 12:25:36;;;;;;;2.53;2.33;;;;;;;29.29;52.42;100337.41;5033563;28;20051;-61
2022/05/20 12:28:20;;;;;;;3.38;2.60;;;;;;;29.32;52.55;100327.81;5033410;28;20064;-61
2022/05/20 12:31:19;;;;;;;3.13;2.70;;;;;;;29.37;52.27;100317.69;5033462;28;20048;-61
2022/05/20 12:34:39;;;;;;;3.42;2.60;;;;;;;29.41;52.16;100320.72;5034573;28;20103;-61
2022/05/20 12:37:42;;;;;;;3.17;2.53;;;;;;;29.46;52.09;100316.09;5034230;28;20056;-61
2022/05/20 12:40:28;;;;;;;3.55;2.80;;;;;;;29.51;51.89;100316.16;5034220;28;20528;-61
2022/05/20 12:43:12;;;;;;;2.53;2.22;;;;;;;29.56;51.62;100307.94;5034816;28;20052;-61
2022/05/20 12:45:56;;;;;;;4.57;2.78;;;;;;;29.59;51.32;100312.09;5033467;28;20048;-61
2022/05/20 12:48:40;;;;;;;3.22;2.50;;;;;;;29.60;51.29;100302.75;5034178;28;20628;-61
2022/05/20 12:51:24;;;;;;;2.78;2.58;;;;;;;29.59;51.43;100307.44;5034127;28;20052;-61
2022/05/20 12:54:15;;;;;;;;;;;;;;;29.54;51.28;100304.63;5034928;28;20052;-60
2022/05/20 12:57:09;;;;;;;2.78;2.55;;;;;;;29.55;51.36;100311.78;5033003;28;20336;-60
2022/05/20 12:59:58;;;;;;;2.65;2.45;;;;;;;29.48;51.47;100324.88;5033914;28;20524;-59
2022/05/20 13:02:45;;;;;;;3.00;2.55;;;;;;;29.43;51.46;100346.84;5033177;28;20140;-61
2022/05/20 13:05:39;;;;;;;4.15;2.53;;;;;;;29.38;51.63;100385.25;5034096;28;20525;-61
2022/05/20 13:08:30;;;;;;;4.32;2.45;;;;;;;29.32;51.71;100407.44;5033047;28;20056;-62
2022/05/20 13:11:16;;;;;;;3.22;2.30;;;;;;;29.27;52.02;100402.75;5032767;28;20051;-62
2022/05/20 13:13:59;;;;;;;3.15;2.85;;;;;;;29.24;52.27;100400.53;5033971;28;20084;-61
2022/05/20 13:16:48;;;;;;;3.03;2.60;;;;;;;29.23;52.04;100363.19;5032682;28;20121;-61
2022/05/20 13:19:38;;;;;;;5.03;2.78;;;;;;;29.21;52.22;100304.97;5032852;28;20056;-62
2022/05/20 13:22:25;;;;;;;2.88;2.45;;;;;;;29.20;52.38;100270.34;5033872;28;20106;-61
2022/05/20 13:25:09;;;;;;;3.67;2.63;;;;;;;29.20;52.08;100269.50;5033577;28;20056;-61
2022/05/20 13:27:53;;;;;;;3.65;2.80;;;;;;;29.17;52.29;100243.41;5033701;28;20520;-61
2022/05/20 13:30:37;;;;;;;;;;;;;;;29.16;52.44;100219.78;5034178;28;20087;-61
2022/05/20 13:33:32;;;;;;;3.47;2.70;;;;;;;29.19;52.42;100213.78;5033412;28;19920;-61
2022/05/20 13:36:21;;;;;;;3.53;2.75;;;;;;;29.20;52.38;100209.94;5033565;28;20122;-62
2022/05/20 13:39:04;;;;;;;2.75;2.40;;;;;;;29.17;52.53;100237.09;5033034;28;20449;-61
2022/05/20 13:41:49;;;;;;;3.05;2.72;;;;;;;29.14;52.29;100257.69;5032363;28;20099;-61
2022/05/20 13:44:34;;;;;;;3.03;2.63;;;;;;;29.09;52.81;100274.13;5032300;28;20099;-61
2022/05/20 13:50:25;;;;;;;2.75;2.25;;;;;;;29.02;53.11;100286.41;5032110;28;20520;-60